Time;durP1;ratioP1;P1;durP2;ratioP2;P2;SDS_P1;SDS_P2;PMS_P1;PMS_P2;Temp;Humidity;BMP_temperature;BMP_pressure;BME280_temperature;BME280_humidity;BME280_pressure;Samples;Min_cycle;Max_cycle;Signal;HPM_P1;HPM_P2
2022/08/30 00:03:35;;;;;;;5.35;4.55;;;;;;;22.87;60.22;96801.09;10551311;28;20665;-26
2022/08/30 00:08:37;;;;;;;4.93;3.05;;;;;;;22.73;59.36;96803.88;10546401;28;20113;-26
2022/08/30 00:13:40;;;;;;;3.42;3.13;;;;;;;22.64;59.43;96809.13;10551517;28;20032;-27
2022/08/30 00:18:41;;;;;;;2.97;2.63;;;;;;;22.61;59.60;96801.53;10549797;28;20032;-28
2022/08/30 00:23:41;;;;;;;4.13;3.72;;;;;;;22.57;59.57;96804.97;10542725;28;20035;-27
2022/08/30 00:28:41;;;;;;;2.60;2.40;;;;;;;22.54;59.54;96797.38;10539834;28;20024;-27
2022/08/30 00:33:42;;;;;;;4.60;3.43;;;;;;;22.55;59.55;96793.94;10550185;28;20036;-28
2022/08/30 00:38:42;;;;;;;4.87;3.60;;;;;;;22.58;59.80;96793.91;10537896;28;20039;-27
2022/08/30 00:43:42;;;;;;;5.20;4.80;;;;;;;22.79;59.92;96795.28;10547436;28;20024;-26
2022/08/30 00:48:46;;;;;;;4.93;4.43;;;;;;;22.78;59.83;96797.00;10544064;27;20036;-27
2022/08/30 00:53:53;;;;;;;3.22;2.95;;;;;;;22.71;59.25;96784.34;10543948;28;20298;-26
2022/08/30 00:58:59;;;;;;;5.53;4.03;;;;;;;22.64;59.22;96788.72;10544186;28;20048;-27
2022/08/30 01:03:59;;;;;;;3.60;3.23;;;;;;;22.60;59.40;96784.53;10547243;28;20426;-27
2022/08/30 01:09:02;;;;;;;4.28;3.88;;;;;;;22.56;59.47;96784.59;10545871;28;20028;-27
2022/08/30 01:14:05;;;;;;;5.05;4.15;;;;;;;22.54;59.52;96784.63;10542547;28;20475;-26
2022/08/30 01:19:24;;;;;;;3.72;3.40;;;;;;;22.53;59.48;96779.53;10547269;28;20941;-26
2022/08/30 01:24:25;;;;;;;7.95;4.78;;;;;;;22.65;60.22;96785.28;10553658;28;20028;-26
2022/08/30 01:29:26;;;;;;;4.90;4.35;;;;;;;22.78;59.58;96785.94;10541315;28;20028;-26
2022/08/30 01:34:26;;;;;;;4.95;4.53;;;;;;;22.73;60.06;96798.78;10543404;28;20024;-26
2022/08/30 01:39:27;;;;;;;3.80;3.43;;;;;;;22.63;59.33;96787.03;10550240;28;20033;-27
2022/08/30 01:44:27;;;;;;;3.92;3.63;;;;;;;22.60;59.34;96794.75;10542060;28;20121;-27
2022/08/30 01:49:29;;;;;;;3.53;3.23;;;;;;;22.57;59.37;96799.88;10538566;28;20039;-27
2022/08/30 01:54:30;;;;;;;3.65;3.10;;;;;;;22.55;59.33;96796.50;10548082;28;20119;-26
2022/08/30 01:59:31;;;;;;;2.67;2.47;;;;;;;22.52;59.41;96794.00;10541744;28;20503;-26
2022/08/30 02:04:31;;;;;;;2.60;2.40;;;;;;;22.51;59.52;96789.78;10544287;28;20024;-26
2022/08/30 02:09:32;;;;;;;5.97;4.85;;;;;;;22.65;59.64;96795.50;10552487;28;20293;-27
2022/08/30 02:14:37;;;;;;;5.43;4.93;;;;;;;22.75;59.55;96797.03;10558762;28;20039;-26
2022/08/30 02:19:38;;;;;;;5.55;4.47;;;;;;;22.71;59.08;96800.50;10553858;28;20107;-26
2022/08/30 02:24:38;;;;;;;4.03;3.63;;;;;;;22.65;59.13;96790.41;10548449;28;20036;-26
2022/08/30 02:29:39;;;;;;;3.00;2.80;;;;;;;22.58;59.14;96790.53;10548308;28;20417;-26
2022/08/30 02:34:39;;;;;;;4.43;4.05;;;;;;;22.56;59.20;96787.16;10548197;28;20036;-27
2022/08/30 02:39:40;;;;;;;3.23;2.93;;;;;;;22.54;59.26;96788.88;10559858;28;20096;-27
2022/08/30 02:44:40;;;;;;;3.50;3.20;;;;;;;22.53;59.37;96782.94;10550600;28;20293;-27
2022/08/30 02:49:41;;;;;;;4.27;3.50;;;;;;;22.53;59.34;96775.28;10544681;28;20492;-27
2022/08/30 02:54:41;;;;;;;5.37;4.03;;;;;;;22.62;59.40;96758.97;10554400;28;20052;-27
2022/08/30 02:59:44;;;;;;;4.78;4.38;;;;;;;22.72;58.94;96760.53;10547021;28;20032;-27
2022/08/30 03:04:44;;;;;;;4.47;4.18;;;;;;;22.66;59.45;96751.22;10551285;27;20028;-26
2022/08/30 03:09:45;;;;;;;4.60;4.20;;;;;;;22.61;59.13;96750.47;10552067;27;20028;-26
2022/08/30 03:14:45;;;;;;;4.45;3.38;;;;;;;22.60;59.04;96756.47;10544031;28;20064;-26
2022/08/30 03:19:46;;;;;;;4.83;4.37;;;;;;;22.58;59.06;96762.44;10551511;28;20032;-27
2022/08/30 03:24:46;;;;;;;4.30;4.00;;;;;;;22.56;59.28;96759.09;10556677;28;20055;-26
2022/08/30 03:29:46;;;;;;;4.30;3.90;;;;;;;22.56;59.33;96762.47;10539329;28;20092;-27
2022/08/30 03:34:47;;;;;;;5.70;4.30;;;;;;;22.53;59.05;96749.75;10545990;28;20036;-27
2022/08/30 03:39:47;;;;;;;4.70;4.30;;;;;;;22.62;59.18;96748.75;10557060;28;20031;-27
2022/08/30 03:44:47;;;;;;;4.68;4.25;;;;;;;22.67;58.85;96745.28;10547871;28;20436;-27
2022/08/30 03:49:48;;;;;;;6.20;4.13;;;;;;;22.65;58.98;96747.00;10543222;28;20081;-26
2022/08/30 03:54:48;;;;;;;3.30;3.00;;;;;;;22.61;58.57;96757.28;10552703;28;20036;-26
2022/08/30 03:59:49;;;;;;;6.50;3.90;;;;;;;22.55;58.98;96755.69;10545557;28;20278;-27
2022/08/30 04:04:49;;;;;;;4.77;4.07;;;;;;;22.54;59.16;96755.69;10540754;27;20106;-26
2022/08/30 04:09:50;;;;;;;3.13;2.92;;;;;;;22.48;59.24;96769.38;10548370;28;20028;-27
2022/08/30 04:14:50;;;;;;;7.17;3.97;;;;;;;22.52;59.05;96778.69;10545961;28;20043;-27
2022/08/30 04:19:51;;;;;;;5.28;3.92;;;;;;;22.54;58.82;96771.00;10548804;28;20038;-27
2022/08/30 04:24:51;;;;;;;6.38;4.22;;;;;;;22.61;58.90;96767.50;10553688;28;20093;-26
2022/08/30 04:29:52;;;;;;;7.15;4.50;;;;;;;22.66;58.42;96766.56;10542572;28;20051;-27
2022/08/30 04:34:57;;;;;;;4.57;4.18;;;;;;;22.60;58.67;96765.81;10540331;28;20474;-27
2022/08/30 04:40:01;;;;;;;5.82;4.25;;;;;;;22.28;58.49;96767.97;10553786;28;20054;-27
2022/08/30 04:45:05;;;;;;;5.07;4.30;;;;;;;22.37;58.85;96768.69;10548346;28;20036;-27
2022/08/30 04:50:07;;;;;;;4.53;4.13;;;;;;;22.46;58.35;96771.13;10546982;28;20078;-27
2022/08/30 04:55:09;;;;;;;3.00;2.80;;;;;;;22.44;59.04;96770.31;10550597;28;20050;-27
2022/08/30 05:00:11;;;;;;;3.78;3.45;;;;;;;22.47;58.30;96785.56;10546657;28;20706;-27
2022/08/30 05:10:31;;;;;;;4.60;4.20;;;;;;;22.58;58.41;96788.78;10546531;28;20038;-27
2022/08/30 05:15:32;;;;;;;4.78;4.38;;;;;;;22.61;58.40;96791.31;10533570;28;20518;-26
2022/08/30 05:20:34;;;;;;;4.90;4.13;;;;;;;22.56;58.56;96790.53;10546392;28;20040;-28
2022/08/30 05:25:37;;;;;;;4.68;3.85;;;;;;;22.51;58.81;96791.47;10552973;28;20044;-27
2022/08/30 05:30:38;;;;;;;6.05;3.78;;;;;;;22.49;59.06;96793.22;10541640;28;20056;-27
2022/08/30 05:35:39;;;;;;;4.70;4.30;;;;;;;22.50;58.73;96800.81;10542746;28;20079;-27
2022/08/30 05:40:41;;;;;;;5.15;4.25;;;;;;;22.49;59.02;96799.13;10550780;28;20812;-28
2022/08/30 05:45:42;;;;;;;6.03;4.72;;;;;;;22.48;59.02;96806.84;10544508;28;20110;-27
2022/08/30 05:50:42;;;;;;;4.73;4.17;;;;;;;22.47;59.02;96805.97;10538389;28;20038;-26
2022/08/30 05:55:43;;;;;;;7.13;4.57;;;;;;;22.62;58.86;96798.09;10548307;28;20286;-26
2022/08/30 06:00:43;;;;;;;5.20;4.70;;;;;;;22.61;59.12;96788.78;10548773;28;20077;-27
2022/08/30 06:05:43;;;;;;;5.83;4.23;;;;;;;22.59;58.83;96787.94;10545918;28;20039;-27
2022/08/30 06:10:44;;;;;;;3.78;3.47;;;;;;;22.53;58.96;96790.59;10544285;28;20034;-27
2022/08/30 06:15:45;;;;;;;4.35;3.83;;;;;;;22.48;59.15;96782.16;10541691;28;20043;-27
2022/08/30 06:20:50;;;;;;;4.25;3.15;;;;;;;22.47;59.04;96790.66;10543873;28;20028;-27
2022/08/30 06:25:50;;;;;;;8.55;4.45;;;;;;;22.67;60.11;96786.13;10546011;28;20062;-28
2022/08/30 06:30:50;;;;;;;5.23;4.73;;;;;;;22.68;60.73;96792.91;10530597;28;20114;-28
2022/08/30 06:35:51;;;;;;;5.87;5.30;;;;;;;22.71;61.06;96787.75;10537242;28;20052;-27
2022/08/30 06:40:51;;;;;;;8.17;5.63;;;;;;;22.72;61.35;96778.41;10549316;28;20043;-28
2022/08/30 06:45:51;;;;;;;15.20;5.90;;;;;;;22.72;60.99;96774.13;10544148;28;20032;-27
2022/08/30 06:50:53;;;;;;;8.77;6.67;;;;;;;22.68;61.51;96777.59;10538887;28;20032;-27
2022/08/30 06:56:03;;;;;;;8.13;6.97;;;;;;;22.72;62.22;96778.41;10538585;28;20340;-27
2022/08/30 07:01:05;;;;;;;8.10;6.00;;;;;;;22.68;61.12;96780.16;10552629;28;20031;-27
2022/08/30 07:06:06;;;;;;;9.80;5.10;;;;;;;22.64;61.93;96773.41;10551672;28;20101;-28
2022/08/30 07:11:08;;;;;;;8.32;4.05;;;;;;;22.53;59.98;96770.19;10550880;28;20044;-27
2022/08/30 07:16:10;;;;;;;8.35;6.47;;;;;;;22.68;62.58;96775.06;10552277;28;20147;-27
2022/08/30 07:21:14;;;;;;;12.07;6.55;;;;;;;22.72;62.88;96763.91;10548030;28;20081;-27
2022/08/30 07:26:17;;;;;;;5.90;5.40;;;;;;;22.84;62.51;96761.19;10550232;28;20055;-27
2022/08/30 07:31:19;;;;;;;6.35;5.68;;;;;;;22.89;62.26;96768.75;10545910;28;20023;-27
2022/08/30 07:36:21;;;;;;;7.13;5.68;;;;;;;22.90;63.04;96778.94;10542489;28;20119;-28
2022/08/30 07:41:25;;;;;;;7.22;6.45;;;;;;;22.83;63.15;96773.97;10551735;28;20031;-28
2022/08/30 07:46:26;;;;;;;6.30;5.60;;;;;;;22.82;63.07;96782.50;10546501;28;20506;-28
2022/08/30 07:51:27;;;;;;;7.10;6.18;;;;;;;22.86;63.40;96786.66;10539873;28;20051;-28
2022/08/30 07:56:28;;;;;;;9.35;6.38;;;;;;;22.95;62.69;96784.81;10550549;28;20056;-27
2022/08/30 08:01:28;;;;;;;7.80;5.20;;;;;;;22.76;60.36;96782.56;10545852;28;20032;-29
2022/08/30 08:06:29;;;;;;;9.85;5.80;;;;;;;22.75;62.83;96783.44;10550311;28;20031;-27
2022/08/30 08:11:30;;;;;;;7.97;6.32;;;;;;;22.87;62.61;96794.31;10547580;28;20109;-28
2022/08/30 08:16:33;;;;;;;7.15;4.65;;;;;;;22.76;60.28;96783.44;10550507;28;20035;-28
2022/08/30 08:21:33;;;;;;;8.30;5.68;;;;;;;22.62;60.62;96790.44;10547521;28;20055;-28
2022/08/30 08:26:35;;;;;;;9.20;4.72;;;;;;;22.53;60.95;96787.19;10549553;28;20036;-28
2022/08/30 08:31:36;;;;;;;7.85;5.57;;;;;;;22.51;60.95;96787.22;10547175;28;20101;-27
2022/08/30 08:36:37;;;;;;;4.57;3.90;;;;;;;22.48;60.73;96786.44;10539012;28;20066;-28
2022/08/30 08:41:49;;;;;;;6.20;5.03;;;;;;;22.47;60.71;96785.56;10551780;28;20044;-27
2022/08/30 08:46:52;;;;;;;7.40;3.90;;;;;;;22.48;60.61;96791.53;10543096;28;20036;-28
2022/08/30 08:57:12;;;;;;;10.15;5.47;;;;;;;22.81;61.13;96776.53;10547037;28;20074;-28
2022/08/30 09:02:25;;;;;;;14.68;7.00;;;;;;;22.76;60.54;96774.91;10549582;28;20115;-26
2022/08/30 09:07:31;;;;;;;7.65;4.40;;;;;;;22.62;59.98;96759.81;10545087;28;20518;-27
2022/08/30 09:12:31;;;;;;;13.98;5.22;;;;;;;22.61;60.05;96757.28;10548596;28;20498;-28
2022/08/30 09:17:49;;;;;;;10.30;5.88;;;;;;;22.58;59.92;96765.00;10548104;28;20119;-28
2022/08/30 09:22:50;;;;;;;7.57;5.60;;;;;;;22.58;60.06;96773.47;10537709;28;20089;-28
2022/08/30 09:27:52;;;;;;;8.10;4.83;;;;;;;22.51;59.87;96771.91;10543238;28;20047;-28
2022/08/30 09:33:04;;;;;;;8.13;5.20;;;;;;;22.50;59.95;96779.59;10544803;28;20059;-27
2022/08/30 09:38:31;;;;;;;6.25;5.05;;;;;;;22.74;61.46;96772.38;10541828;28;20031;-27
2022/08/30 09:43:33;;;;;;;6.03;3.75;;;;;;;22.80;59.80;96768.88;10539651;28;20549;-27
2022/08/30 09:48:36;;;;;;;4.65;3.30;;;;;;;22.70;59.53;96767.34;10551166;28;20074;-27
2022/08/30 09:53:56;;;;;;;8.32;4.60;;;;;;;22.61;59.57;96768.34;10539039;28;20059;-27
2022/08/30 09:59:08;;;;;;;4.32;3.47;;;;;;;22.56;59.59;96749.69;10538635;28;20030;-28
2022/08/30 10:04:32;;;;;;;6.53;4.75;;;;;;;22.54;59.67;96745.47;10541113;28;20032;-28
2022/08/30 10:09:55;;;;;;;4.82;3.97;;;;;;;22.51;59.92;96746.41;10554027;28;20028;-28
2022/08/30 10:15:25;;;;;;;4.15;3.42;;;;;;;22.49;59.63;96735.34;10537262;28;20511;-27
2022/08/30 10:20:35;;;;;;;6.40;4.32;;;;;;;22.65;60.49;96733.41;10543251;28;20035;-28
2022/08/30 10:25:39;;;;;;;9.93;5.45;;;;;;;22.79;61.58;96732.31;10548253;28;20058;-27
2022/08/30 10:30:47;;;;;;;4.10;3.78;;;;;;;22.75;59.14;96733.22;10533467;28;20125;-27
2022/08/30 10:35:55;;;;;;;5.05;4.55;;;;;;;22.64;59.40;96730.00;10550079;28;20039;-27
2022/08/30 10:41:23;;;;;;;4.90;4.00;;;;;;;22.58;59.58;96731.81;10556265;28;20116;-27
2022/08/30 10:46:35;;;;;;;4.95;4.55;;;;;;;22.55;59.48;96731.88;10546397;28;20510;-28
2022/08/30 10:51:43;;;;;;;4.45;4.05;;;;;;;22.54;59.53;96731.03;10543000;28;20024;-28
2022/08/30 10:56:48;;;;;;;7.53;4.10;;;;;;;22.53;59.55;96739.56;10538291;28;20142;-28
2022/08/30 11:02:16;;;;;;;6.53;4.53;;;;;;;22.51;59.57;96741.28;10555558;28;20034;-28
2022/08/30 11:07:28;;;;;;;6.38;5.13;;;;;;;22.73;60.88;96737.50;10552662;28;20039;-28
2022/08/30 11:12:54;;;;;;;4.05;3.65;;;;;;;22.81;59.34;96743.34;10547418;28;20491;-27
2022/08/30 11:18:03;;;;;;;4.05;3.20;;;;;;;22.67;59.37;96727.44;10542590;28;20028;-28
2022/08/30 11:23:34;;;;;;;3.42;3.17;;;;;;;22.58;59.44;96737.75;10550089;28;20482;-27
2022/08/30 11:28:35;;;;;;;3.75;3.33;;;;;;;22.55;59.45;96732.72;10538810;28;20084;-27
2022/08/30 11:33:57;;;;;;;4.27;3.87;;;;;;;22.52;59.42;96716.59;10551783;28;20106;-27
2022/08/30 11:39:04;;;;;;;6.18;3.92;;;;;;;22.52;59.52;96722.56;10546251;28;20091;-27
2022/08/30 11:44:13;;;;;;;4.03;3.72;;;;;;;22.50;59.47;96719.16;10550181;27;20035;-28
2022/08/30 11:49:17;;;;;;;4.35;3.95;;;;;;;22.65;60.25;96707.91;10547767;28;20111;-27
2022/08/30 11:54:54;;;;;;;5.13;4.63;;;;;;;22.81;60.67;96702.50;10551940;28;20039;-27
2022/08/30 12:00:08;;;;;;;3.03;2.70;;;;;;;22.75;59.03;96700.03;10540080;28;20082;-27
2022/08/30 12:05:37;;;;;;;3.40;3.10;;;;;;;22.63;59.37;96694.28;10549276;27;20083;-28
2022/08/30 12:10:50;;;;;;;3.45;2.75;;;;;;;22.58;59.40;96686.72;10547543;28;20063;-28
2022/08/30 12:16:10;;;;;;;4.47;3.40;;;;;;;22.55;59.32;96686.78;10541823;28;20055;-28
2022/08/30 12:21:16;;;;;;;4.90;3.70;;;;;;;22.53;59.50;96677.47;10548644;28;20088;-27
2022/08/30 12:26:23;;;;;;;6.28;4.53;;;;;;;22.52;59.43;96675.78;10549692;28;20106;-27
2022/08/30 12:31:24;;;;;;;4.68;4.28;;;;;;;22.54;59.64;96671.47;10546157;28;20032;-27
2022/08/30 12:36:47;;;;;;;6.50;4.60;;;;;;;22.76;61.00;96671.13;10540374;28;20042;-28
2022/08/30 12:41:47;;;;;;;3.03;2.83;;;;;;;22.80;59.41;96665.06;10545845;28;20077;-28
2022/08/30 12:46:52;;;;;;;5.00;3.23;;;;;;;22.68;59.46;96662.75;10548879;28;20403;-27
2022/08/30 12:51:54;;;;;;;5.63;3.63;;;;;;;22.62;59.48;96657.75;10539387;28;20024;-27
2022/08/30 12:56:56;;;;;;;4.45;3.88;;;;;;;22.60;59.35;96658.63;10547487;28;20457;-25
2022/08/30 13:02:11;;;;;;;3.75;3.22;;;;;;;22.59;59.23;96652.69;10544495;28;20059;-28
2022/08/30 13:07:24;;;;;;;5.07;4.57;;;;;;;22.56;59.41;96652.72;10546074;28;20096;-29
2022/08/30 13:12:26;;;;;;;4.60;4.20;;;;;;;22.56;59.39;96639.97;10549981;28;20034;-27
2022/08/30 13:17:27;;;;;;;4.68;4.18;;;;;;;22.65;60.73;96627.06;10551017;28;20032;-28
2022/08/30 13:22:30;;;;;;;5.95;4.43;;;;;;;22.83;61.16;96615.69;10551084;28;20032;-27
2022/08/30 13:27:33;;;;;;;2.88;2.67;;;;;;;22.78;59.06;96592.78;10548306;28;20054;-27
2022/08/30 13:32:36;;;;;;;3.40;3.10;;;;;;;22.68;59.48;96596.38;10550405;28;20032;-28
2022/08/30 13:37:40;;;;;;;6.20;3.65;;;;;;;22.63;59.29;96618.59;10549086;28;20036;-28
2022/08/30 13:42:41;;;;;;;4.35;3.95;;;;;;;22.56;59.54;96606.81;10542066;28;20222;-28
2022/08/30 13:47:45;;;;;;;3.42;3.13;;;;;;;22.55;59.48;96600.00;10555071;28;20406;-28
2022/08/30 13:52:45;;;;;;;4.03;3.00;;;;;;;22.52;59.46;96594.97;10538400;28;20109;-27
2022/08/30 13:57:46;;;;;;;5.90;4.17;;;;;;;22.58;59.70;96599.94;10541444;28;20028;-27
2022/08/30 14:02:48;;;;;;;4.33;3.80;;;;;;;22.71;60.71;96582.69;10549412;28;20606;-28
2022/08/30 14:07:48;;;;;;;5.72;4.47;;;;;;;22.85;60.87;96594.34;10532828;28;20081;-28
2022/08/30 14:12:48;;;;;;;4.50;3.30;;;;;;;22.80;59.58;96593.59;10554825;28;20032;-28
2022/08/30 14:17:49;;;;;;;6.20;3.37;;;;;;;22.63;59.69;96580.31;10552938;28;20048;-27
2022/08/30 14:22:50;;;;;;;5.18;4.40;;;;;;;22.64;59.43;96589.63;10557972;28;20036;-27
2022/08/30 14:27:50;;;;;;;4.80;4.32;;;;;;;22.61;60.14;96587.16;10549519;28;20050;-28
2022/08/30 14:32:51;;;;;;;6.87;5.40;;;;;;;22.61;59.54;96587.16;10546842;28;20131;-28
2022/08/30 14:37:51;;;;;;;5.75;4.60;;;;;;;22.59;59.52;96583.81;10552088;28;20070;-28
2022/08/30 14:42:52;;;;;;;5.63;4.37;;;;;;;22.58;60.36;96578.72;10555637;28;20036;-27
2022/08/30 14:47:56;;;;;;;5.47;3.78;;;;;;;22.73;60.52;96569.03;10559727;27;20032;-28
2022/08/30 14:52:56;;;;;;;7.97;5.18;;;;;;;22.90;61.59;96571.28;10544738;28;20039;-27
2022/08/30 14:57:57;;;;;;;5.93;3.47;;;;;;;22.79;59.49;96558.72;10537619;28;20028;-28
2022/08/30 15:02:57;;;;;;;4.07;3.30;;;;;;;22.70;59.55;96543.59;10557749;28;20036;-28
2022/08/30 15:07:58;;;;;;;8.57;3.73;;;;;;;22.64;59.47;96551.34;10552466;28;20126;-27
2022/08/30 15:12:58;;;;;;;4.43;3.40;;;;;;;22.58;60.02;96559.13;10551128;28;20525;-27
2022/08/30 15:17:58;;;;;;;2.83;2.63;;;;;;;22.57;59.52;96559.16;10554907;28;20038;-28
2022/08/30 15:22:59;;;;;;;2.50;2.30;;;;;;;22.56;59.54;96555.75;10550812;28;20088;-27
2022/08/30 15:27:59;;;;;;;2.80;2.60;;;;;;;22.57;59.53;96552.34;10549417;28;20024;-29
2022/08/30 15:33:00;;;;;;;5.88;5.18;;;;;;;22.76;61.55;96553.69;10551229;28;20045;-27
2022/08/30 15:38:00;;;;;;;4.78;4.22;;;;;;;22.89;60.17;96561.97;10548300;28;20120;-27
2022/08/30 15:43:03;;;;;;;4.38;2.85;;;;;;;22.75;59.07;96567.28;10551178;28;20039;-28
2022/08/30 15:48:03;;;;;;;2.63;2.42;;;;;;;22.67;59.19;96569.19;10545605;28;20024;-28
2022/08/30 15:53:05;;;;;;;2.92;2.60;;;;;;;22.64;59.20;96569.22;10543950;28;20535;-28
2022/08/30 15:58:05;;;;;;;3.28;2.97;;;;;;;22.62;59.24;96581.19;10547504;28;20031;-28
2022/08/30 16:03:06;;;;;;;3.13;2.70;;;;;;;22.59;59.26;96581.25;10554163;28;20047;-27
2022/08/30 16:08:06;;;;;;;2.80;2.60;;;;;;;22.59;59.33;96586.34;10546494;28;20100;-28
2022/08/30 16:13:06;;;;;;;3.43;3.13;;;;;;;22.59;59.39;96600.81;10551044;28;20035;-28
2022/08/30 16:18:07;;;;;;;5.60;4.57;;;;;;;22.82;57.68;96607.16;10543078;28;20032;-27
2022/08/30 16:23:09;;;;;;;12.63;5.17;;;;;;;22.93;58.41;96607.81;10550941;28;20031;-28
2022/08/30 16:28:09;;;;;;;5.47;2.92;;;;;;;22.74;58.29;96601.34;10543319;28;20763;-28
2022/08/30 16:33:09;;;;;;;3.10;2.80;;;;;;;22.66;58.83;96602.38;10550334;28;20126;-26
2022/08/30 16:38:10;;;;;;;4.00;3.20;;;;;;;22.63;59.01;96610.06;10540639;28;20023;-28
2022/08/30 16:43:10;;;;;;;3.07;2.77;;;;;;;22.60;59.12;96600.78;10555032;28;20065;-28
2022/08/30 16:48:12;;;;;;;4.38;3.10;;;;;;;22.63;59.14;96605.81;10550871;28;20509;-27
2022/08/30 16:53:12;;;;;;;3.67;3.33;;;;;;;22.62;58.97;96611.81;10539823;28;20047;-27
2022/08/30 16:58:13;;;;;;;5.07;4.32;;;;;;;22.60;58.97;96607.59;10544007;28;20028;-27
2022/08/30 17:03:14;;;;;;;6.30;3.92;;;;;;;22.83;58.98;96601.19;10550619;28;20447;-28
2022/08/30 17:08:15;;;;;;;10.85;4.20;;;;;;;22.86;59.13;96605.41;10544119;28;20516;-28
2022/08/30 17:13:16;;;;;;;5.53;3.43;;;;;;;22.72;58.82;96603.09;10542676;28;20128;-28
2022/08/30 17:18:17;;;;;;;8.38;4.55;;;;;;;22.66;58.50;96610.88;10550478;28;20398;-29
2022/08/30 17:23:18;;;;;;;8.82;3.70;;;;;;;22.55;59.53;96615.31;10541097;28;20457;-26
2022/08/30 17:28:18;;;;;;;3.83;2.57;;;;;;;22.50;59.47;96616.28;10542913;28;20031;-26
2022/08/30 17:33:18;;;;;;;5.00;4.00;;;;;;;22.68;59.56;96609.16;10540690;28;20653;-28
2022/08/30 17:38:19;;;;;;;5.55;3.38;;;;;;;22.62;59.59;96613.50;10545177;28;20345;-28
2022/08/30 17:43:20;;;;;;;3.47;2.60;;;;;;;22.42;59.55;96626.63;10544295;28;20031;-29
2022/08/30 17:48:20;;;;;;;5.67;3.47;;;;;;;22.73;60.03;96624.38;10532853;28;20032;-29
2022/08/30 17:53:20;;;;;;;8.30;2.67;;;;;;;22.78;59.27;96615.75;10529265;28;20309;-27
2022/08/30 17:58:21;;;;;;;12.53;3.47;;;;;;;22.71;59.89;96611.63;10534765;28;20028;-28
2022/08/30 18:03:22;;;;;;;6.60;2.70;;;;;;;22.53;59.79;96628.97;10505700;28;20056;-28
2022/08/30 18:08:22;;;;;;;18.73;3.93;;;;;;;22.59;59.99;96634.84;10507663;28;20050;-26
2022/08/30 18:13:23;;;;;;;7.93;3.40;;;;;;;22.57;59.76;96633.19;10542716;28;20183;-27
2022/08/30 18:18:23;;;;;;;8.90;4.23;;;;;;;22.58;59.62;96622.91;10546322;28;20039;-26
2022/08/30 18:23:24;;;;;;;3.00;2.70;;;;;;;22.58;59.63;96625.47;10550687;28;20092;-26
2022/08/30 18:28:24;;;;;;;9.20;3.58;;;;;;;22.66;59.26;96621.06;10545191;28;20043;-28
2022/08/30 18:33:26;;;;;;;3.33;2.83;;;;;;;22.87;59.57;96624.94;10532321;28;20046;-28
2022/08/30 18:38:26;;;;;;;3.72;3.15;;;;;;;22.85;58.92;96627.56;10530435;28;20559;-26
2022/08/30 18:43:27;;;;;;;4.38;2.88;;;;;;;22.67;59.15;96627.88;10541413;28;20174;-26
2022/08/30 18:48:28;;;;;;;4.18;2.55;;;;;;;22.65;59.13;96639.00;10550266;28;20028;-28
2022/08/30 18:53:28;;;;;;;4.15;2.70;;;;;;;22.61;59.38;96653.50;10544981;28;20044;-27
2022/08/30 18:58:29;;;;;;;4.43;2.75;;;;;;;22.59;59.44;96650.16;10551077;28;20032;-28
2022/08/30 19:03:29;;;;;;;3.88;2.88;;;;;;;22.57;59.52;96654.41;10547951;28;20036;-27
2022/08/30 19:08:30;;;;;;;3.60;2.57;;;;;;;22.56;59.57;96659.56;10547961;28;20063;-27
2022/08/30 19:13:30;;;;;;;3.10;2.80;;;;;;;22.69;60.01;96664.44;10543421;28;20403;-27
2022/08/30 19:18:30;;;;;;;7.50;3.73;;;;;;;22.87;60.02;96660.69;10535533;28;20036;-28
2022/08/30 19:23:35;;;;;;;7.90;3.50;;;;;;;22.76;59.37;96676.22;10546119;28;20062;-28
2022/08/30 19:28:35;;;;;;;2.75;2.47;;;;;;;22.66;59.38;96684.88;10534418;28;20052;-27
2022/08/30 19:33:36;;;;;;;2.53;2.33;;;;;;;22.59;59.35;96678.22;10548347;28;20039;-27
2022/08/30 19:38:36;;;;;;;3.47;2.60;;;;;;;22.58;59.41;96686.72;10544279;28;20423;-26
2022/08/30 19:43:37;;;;;;;3.83;3.07;;;;;;;22.59;60.44;96688.44;10552548;28;20418;-26
2022/08/30 19:48:41;;;;;;;5.15;2.90;;;;;;;22.57;59.61;96699.53;10551686;28;20587;-27
2022/08/30 19:53:42;;;;;;;3.22;2.92;;;;;;;22.58;59.49;96716.50;10541091;28;20055;-28
2022/08/30 19:58:42;;;;;;;7.53;3.93;;;;;;;22.74;59.95;96740.91;10544532;28;20589;-27
2022/08/30 20:03:43;;;;;;;12.47;4.73;;;;;;;22.90;61.70;96740.63;10552437;28;20274;-27
2022/08/30 20:08:44;;;;;;;4.07;2.88;;;;;;;22.78;59.42;96745.94;10548221;28;20036;-27
2022/08/30 20:13:45;;;;;;;6.70;3.70;;;;;;;22.70;59.54;96763.09;10547732;28;20035;-27
2022/08/30 20:18:47;;;;;;;5.95;3.17;;;;;;;22.64;59.57;96775.94;10548602;28;20035;-26
2022/08/30 20:23:48;;;;;;;2.60;2.38;;;;;;;22.61;59.69;96777.69;10534042;28;20036;-27
2022/08/30 20:28:49;;;;;;;4.40;2.47;;;;;;;22.58;59.84;96787.97;10544007;28;20028;-27
2022/08/30 20:33:49;;;;;;;3.28;2.72;;;;;;;22.55;59.54;96783.75;10545480;28;20035;-27
2022/08/30 20:38:50;;;;;;;4.37;2.80;;;;;;;22.55;59.67;96777.81;10533651;28;20020;-28
2022/08/30 20:43:51;;;;;;;8.13;4.57;;;;;;;22.77;64.42;96779.16;10536589;28;20078;-27
2022/08/30 20:48:52;;;;;;;6.00;4.30;;;;;;;22.84;64.37;96773.94;10539403;28;20484;-27
2022/08/30 20:53:54;;;;;;;3.95;3.20;;;;;;;22.75;60.60;96770.69;10538424;28;20038;-27
2022/08/30 20:58:54;;;;;;;4.78;2.75;;;;;;;22.66;59.97;96765.72;10529513;28;20038;-27
2022/08/30 21:03:55;;;;;;;4.80;3.13;;;;;;;22.60;59.77;96761.56;10539615;28;20521;-27
2022/08/30 21:08:55;;;;;;;2.70;2.43;;;;;;;22.54;59.81;96761.66;10540581;28;20601;-26
2022/08/30 21:13:55;;;;;;;3.07;2.77;;;;;;;22.54;59.92;96782.06;10540722;28;20282;-27
2022/08/30 21:18:56;;;;;;;3.13;2.80;;;;;;;22.54;59.80;96789.72;10529424;28;20028;-27
2022/08/30 21:24:05;;;;;;;5.53;2.80;;;;;;;22.54;60.25;96805.03;10541128;28;20036;-27
2022/08/30 21:29:06;;;;;;;5.05;3.55;;;;;;;22.77;65.08;96810.66;10543208;28;20384;-26
2022/08/30 21:34:06;;;;;;;5.57;3.97;;;;;;;22.78;65.11;96809.78;10542069;28;20083;-27
2022/08/30 21:39:07;;;;;;;4.25;2.63;;;;;;;22.73;60.54;96820.94;10540968;28;20028;-26
2022/08/30 21:44:12;;;;;;;3.33;2.53;;;;;;;22.63;60.31;96817.66;10542765;28;20044;-26
2022/08/30 21:49:15;;;;;;;4.38;2.75;;;;;;;22.60;60.44;96827.91;10540234;28;20044;-27
2022/08/30 21:54:17;;;;;;;2.83;2.50;;;;;;;22.57;60.26;96837.31;10531052;28;20090;-27
2022/08/30 21:59:18;;;;;;;2.80;2.50;;;;;;;22.55;60.17;96836.50;10536218;28;20095;-27
2022/08/30 22:04:18;;;;;;;3.92;3.50;;;;;;;22.55;60.10;96857.75;10531498;28;20024;-27
2022/08/30 22:09:22;;;;;;;2.93;2.53;;;;;;;22.56;60.46;96851.78;10546517;28;20039;-27
2022/08/30 22:14:22;;;;;;;4.25;3.45;;;;;;;22.75;64.45;96862.59;10539062;28;20112;-27
2022/08/30 22:19:23;;;;;;;6.50;3.53;;;;;;;22.75;64.25;96870.25;10541935;28;20146;-27
2022/08/30 22:24:24;;;;;;;2.53;2.28;;;;;;;22.69;62.09;96876.28;10544271;28;20047;-27
2022/08/30 22:29:24;;;;;;;4.13;2.80;;;;;;;22.64;61.05;96880.59;10551062;28;20376;-27
2022/08/30 22:34:25;;;;;;;4.07;2.73;;;;;;;22.60;60.12;96884.06;10549324;28;20036;-27
2022/08/30 22:39:26;;;;;;;3.20;2.67;;;;;;;22.58;60.97;96880.66;10556422;28;20422;-27
2022/08/30 22:44:26;;;;;;;2.65;2.45;;;;;;;22.56;60.31;96886.69;10539709;28;20545;-26
2022/08/30 22:49:27;;;;;;;3.30;2.87;;;;;;;22.52;60.23;96883.31;10542583;28;20036;-28
2022/08/30 22:54:28;;;;;;;3.55;2.97;;;;;;;22.55;61.00;96875.63;10551415;28;20100;-29
2022/08/30 22:59:29;;;;;;;5.47;3.10;;;;;;;22.74;64.89;96861.72;10551692;28;20419;-26
2022/08/30 23:04:30;;;;;;;4.28;2.83;;;;;;;22.70;64.44;96860.09;10550184;28;20035;-27
2022/08/30 23:09:30;;;;;;;2.80;2.57;;;;;;;22.67;61.41;96865.25;10549595;28;20395;-29
2022/08/30 23:14:30;;;;;;;3.63;2.10;;;;;;;22.61;61.36;96864.47;10545548;28;20409;-27
2022/08/30 23:19:31;;;;;;;5.63;3.10;;;;;;;22.57;60.76;96868.78;10539184;28;20123;-26
